X  Close Metar Aviation Weather Data     KNPA Naval Air Station Pensacola Forrest Sherman Field
Temperature
73°F Temperature
73°F Dewpoint
100% Humidity



Wind
5 MPH
8 KM/H
2 M/S
4 KTS



350°
N
Current Conditions

Mostly Scattered Clouds Mostly Scattered Clouds
Pressure 1016.92 (hPa) - 30.03 (inHg)
Visibility 10 (mile) - 16.1 (km)
Airport
Airport-code KNPA

Location: Naval Air Station Pensacola Forrest Sherman Field
Distance: 14 (mi)

Metar:
KNPA 121056Z 35004KT 10SM SCT021 BKN060 23/23 A3003 RMK AO2 RAB14E45 SLP169 CB DSNT E T2 SET P0001 T02330228 $

Time: 12-08-2022 05:56 CDT